createdAt,value
2018-07-23T00:02:36.821Z,83.47
2018-07-23T00:07:31.325Z,82.86
2018-07-23T00:12:25.829Z,83.86
2018-07-23T00:17:20.347Z,83.52
2018-07-23T00:22:14.783Z,84.08
2018-07-23T00:27:09.435Z,83.85
2018-07-23T00:32:03.990Z,82.12
2018-07-23T00:36:58.511Z,82.49
2018-07-23T00:41:53.037Z,83.36
2018-07-23T00:46:47.554Z,83.18
2018-07-23T00:51:42.128Z,82.65
2018-07-23T00:56:36.607Z,82.32
2018-07-23T01:01:31.086Z,83.33
2018-07-23T01:06:25.593Z,82.61
2018-07-23T01:11:20.149Z,82.43
2018-07-23T01:16:14.695Z,83.45
2018-07-23T01:21:09.279Z,83.24
2018-07-23T01:26:03.801Z,81.66
2018-07-23T01:30:58.304Z,82.56
2018-07-23T01:35:52.798Z,81.79
2018-07-23T01:40:47.308Z,82.26
2018-07-23T01:45:41.821Z,82.74
2018-07-23T01:50:36.320Z,82.56
2018-07-23T01:55:31.788Z,83.84
2018-07-23T02:00:26.370Z,83.75
2018-07-23T02:05:20.889Z,83.29
2018-07-23T02:10:15.412Z,83.91
2018-07-23T02:15:09.934Z,84.06
2018-07-23T02:20:05.074Z,83.92
2018-07-23T02:24:59.668Z,83.14
2018-07-23T02:29:54.125Z,82.60
2018-07-23T02:34:48.681Z,82.29
2018-07-23T02:39:43.197Z,83.56
2018-07-23T02:44:37.729Z,82.85
2018-07-23T02:49:32.246Z,84.10
2018-07-23T02:54:26.783Z,83.22
2018-07-23T02:59:21.973Z,83.93
2018-07-23T03:04:16.506Z,83.47
2018-07-23T03:09:11.044Z,83.23
2018-07-23T03:14:05.638Z,83.25
2018-07-23T03:19:00.149Z,83.44
2018-07-23T03:23:54.661Z,84.22
2018-07-23T03:28:49.324Z,83.46
2018-07-23T03:33:43.946Z,83.37
2018-07-23T03:38:38.440Z,84.06
2018-07-23T03:43:32.929Z,85.52
2018-07-23T03:48:27.508Z,85.09
2018-07-23T03:53:22.020Z,85.04
2018-07-23T03:58:16.661Z,84.35
2018-07-23T04:03:11.253Z,84.77
2018-07-23T04:08:05.913Z,83.77
2018-07-23T04:13:00.437Z,84.06
2018-07-23T04:18:01.806Z,83.24
2018-07-23T04:22:56.086Z,84.15
2018-07-23T04:27:50.641Z,84.04
2018-07-23T04:32:45.209Z,82.65
2018-07-23T04:37:39.768Z,82.96
2018-07-23T04:42:34.317Z,82.44
2018-07-23T04:47:28.945Z,81.98
2018-07-23T04:52:23.481Z,81.83
2018-07-23T04:57:18.096Z,81.21
2018-07-23T05:02:12.720Z,80.60
2018-07-23T05:07:07.344Z,80.71
2018-07-23T05:12:01.953Z,79.58
2018-07-23T05:16:56.540Z,78.91
2018-07-23T05:21:51.129Z,79.98
2018-07-23T05:26:45.710Z,78.78
2018-07-23T05:31:40.291Z,72.18
2018-07-23T05:36:34.723Z,69.31
2018-07-23T05:41:29.156Z,68.58
2018-07-23T05:46:23.597Z,70.07
2018-07-23T05:51:18.145Z,68.91
2018-07-23T05:56:12.581Z,68.14
2018-07-23T06:01:07.101Z,66.47
2018-07-23T06:06:01.589Z,66.46
2018-07-23T06:10:56.033Z,67.65
2018-07-23T06:15:50.497Z,67.87
2018-07-23T06:20:44.964Z,67.47
2018-07-23T06:25:39.470Z,67.92
2018-07-23T06:30:33.957Z,67.57
2018-07-23T06:35:28.484Z,65.05
2018-07-23T06:40:22.995Z,64.78
2018-07-23T06:45:17.521Z,67.25
2018-07-23T06:50:12.449Z,67.14
2018-07-23T06:55:06.640Z,66.02
2018-07-23T07:00:01.106Z,65.62
2018-07-23T07:04:55.766Z,65.04
2018-07-23T07:09:50.043Z,64.42
2018-07-23T07:14:44.754Z,63.65
2018-07-23T07:19:39.647Z,64.10
2018-07-23T07:24:35.285Z,65.93
2018-07-23T07:29:30.097Z,62.84
2018-07-23T07:34:24.794Z,61.53
2018-07-23T07:39:19.405Z,62.71
2018-07-23T07:44:13.922Z,64.64
2018-07-23T07:49:08.945Z,63.47
2018-07-23T07:54:04.914Z,62.35
2018-07-23T07:58:59.557Z,63.71
2018-07-23T08:03:53.991Z,60.92
2018-07-23T08:08:48.511Z,59.56
2018-07-23T08:13:43.081Z,60.21
2018-07-23T08:18:37.669Z,60.67
2018-07-23T08:23:32.323Z,56.57
2018-07-23T08:28:26.909Z,56.43
2018-07-23T08:33:21.715Z,56.49
2018-07-23T08:38:16.213Z,57.66
2018-07-23T08:43:10.797Z,60.41
2018-07-23T08:48:05.272Z,60.32
2018-07-23T08:53:00.538Z,59.08
2018-07-23T08:57:56.285Z,59.93
2018-07-23T09:02:50.944Z,61.06
2018-07-23T09:07:48.956Z,60.77
2018-07-23T09:12:43.432Z,61.10
2018-07-23T09:17:38.321Z,59.04
2018-07-23T09:22:33.475Z,59.79
2018-07-23T09:27:28.065Z,60.83
2018-07-23T09:32:22.495Z,58.71
2018-07-23T09:37:18.508Z,57.41
2018-07-23T09:42:13.077Z,56.79
2018-07-23T09:47:08.648Z,54.63
2018-07-23T09:52:03.251Z,54.98
2018-07-23T09:56:57.518Z,53.48
2018-07-23T10:01:51.983Z,51.89
2018-07-23T10:06:47.312Z,51.06
2018-07-23T10:11:41.753Z,50.30
2018-07-23T10:16:36.452Z,50.91
2018-07-23T10:21:31.000Z,49.58
2018-07-23T10:26:25.781Z,49.79
2018-07-23T10:31:22.482Z,49.87
2018-07-23T10:36:16.937Z,48.29
2018-07-23T10:41:11.588Z,46.39
2018-07-23T10:46:06.551Z,47.05
2018-07-23T10:51:01.447Z,47.31
2018-07-23T10:55:55.920Z,47.63
2018-07-23T11:00:50.407Z,45.21
2018-07-23T11:05:44.889Z,45.38
2018-07-23T11:10:39.969Z,45.20
2018-07-23T11:15:34.522Z,45.72
2018-07-23T11:20:28.707Z,46.68
2018-07-23T11:25:38.979Z,45.01
2018-07-23T11:30:24.917Z,44.20
2018-07-23T11:35:19.377Z,43.85
2018-07-23T11:40:15.242Z,42.22
2018-07-23T11:45:09.788Z,41.60
2018-07-23T11:50:04.292Z,42.69
2018-07-23T11:54:58.726Z,41.78
2018-07-23T11:59:53.237Z,40.66
2018-07-23T12:04:48.586Z,42.21
2018-07-23T12:09:45.318Z,41.15
2018-07-23T12:14:40.461Z,42.02
2018-07-23T12:19:34.926Z,41.56
2018-07-23T12:24:29.745Z,42.15
2018-07-23T12:29:25.194Z,41.41
2018-07-23T12:34:19.788Z,41.71
2018-07-23T12:39:14.288Z,40.91
2018-07-23T12:44:08.842Z,39.41
2018-07-23T12:49:03.329Z,38.98
2018-07-23T12:53:57.775Z,38.64
2018-07-23T12:58:52.232Z,38.37
2018-07-23T13:03:46.360Z,38.10
2018-07-23T13:08:41.005Z,38.41
2018-07-23T13:13:35.510Z,37.39
2018-07-23T13:18:30.052Z,36.66
2018-07-23T13:23:24.512Z,38.26
2018-07-23T13:28:19.049Z,37.96
2018-07-23T13:33:13.497Z,38.79
2018-07-23T13:38:08.015Z,39.45
2018-07-23T13:43:02.510Z,40.02
2018-07-23T13:47:56.980Z,39.01
2018-07-23T13:52:51.454Z,39.38
2018-07-23T13:57:45.917Z,38.75
2018-07-23T14:02:40.425Z,38.44
2018-07-23T14:07:34.893Z,39.08
2018-07-23T14:12:29.329Z,40.21
2018-07-23T14:17:23.900Z,41.63
2018-07-23T14:22:18.977Z,41.45
2018-07-23T14:27:13.481Z,41.10
2018-07-23T14:32:07.992Z,41.70
2018-07-23T14:37:02.436Z,42.09
2018-07-23T14:41:57.288Z,40.06
2018-07-23T14:46:51.767Z,40.07
2018-07-23T14:51:46.298Z,41.60
2018-07-23T14:56:40.736Z,39.83
2018-07-23T15:01:35.047Z,41.15
2018-07-23T15:06:29.529Z,41.73
2018-07-23T15:11:23.800Z,42.05
2018-07-23T15:16:18.381Z,40.94
2018-07-23T15:21:12.877Z,39.71
2018-07-23T15:26:07.401Z,39.18
2018-07-23T15:31:01.842Z,40.30
2018-07-23T15:35:56.337Z,39.97
2018-07-23T15:40:50.884Z,39.73
2018-07-23T15:45:46.950Z,39.48
2018-07-23T15:50:42.686Z,39.97
2018-07-23T15:55:37.136Z,39.97
2018-07-23T16:00:31.596Z,39.87
2018-07-23T16:05:26.087Z,40.23
2018-07-23T16:10:20.495Z,41.64
2018-07-23T16:15:14.932Z,41.28
2018-07-23T16:20:09.363Z,40.14
2018-07-23T16:25:03.598Z,40.64
2018-07-23T16:29:58.332Z,40.92
2018-07-23T16:34:52.796Z,40.71
2018-07-23T16:39:47.336Z,42.25
2018-07-23T16:44:42.078Z,41.30
2018-07-23T16:49:36.742Z,39.75
2018-07-23T16:54:31.341Z,39.24
2018-07-23T16:59:26.196Z,38.05
2018-07-23T17:04:20.893Z,40.22
2018-07-23T17:09:15.540Z,39.51
2018-07-23T17:14:10.400Z,40.97
2018-07-23T17:19:05.081Z,41.20
2018-07-23T17:23:59.895Z,43.24
2018-07-23T17:28:54.713Z,43.36
2018-07-23T17:33:49.525Z,43.47
2018-07-23T17:38:44.210Z,42.62
2018-07-23T17:43:38.728Z,43.75
2018-07-23T17:48:33.768Z,43.36
2018-07-23T17:53:28.457Z,43.43
2018-07-23T17:58:23.033Z,43.38
2018-07-23T18:03:17.684Z,44.43
2018-07-23T18:08:12.339Z,43.71
2018-07-23T18:13:07.233Z,44.64
2018-07-23T18:18:01.820Z,44.72
2018-07-23T18:22:56.407Z,46.10
2018-07-23T18:27:51.018Z,47.09
2018-07-23T18:32:45.576Z,47.59
2018-07-23T18:37:40.320Z,47.11
2018-07-23T18:42:35.015Z,47.96
2018-07-23T18:47:29.565Z,48.13
2018-07-23T18:52:24.951Z,49.29
2018-07-23T18:57:19.790Z,50.45
2018-07-23T19:02:15.794Z,52.35
2018-07-23T19:07:10.818Z,54.41
2018-07-23T19:12:05.512Z,56.53
2018-07-23T19:17:01.058Z,57.25
2018-07-23T19:21:55.693Z,57.26
2018-07-23T19:26:50.356Z,59.83
2018-07-23T19:31:44.700Z,60.36
2018-07-23T19:36:39.353Z,60.92
2018-07-23T19:41:33.981Z,62.29
2018-07-23T19:46:28.544Z,63.28
2018-07-23T19:51:23.328Z,63.88
2018-07-23T19:56:17.968Z,64.63
2018-07-23T20:01:12.710Z,64.96
2018-07-23T20:06:07.322Z,65.42
2018-07-23T20:11:02.104Z,65.24
2018-07-23T20:15:57.128Z,65.84
2018-07-23T20:20:51.708Z,66.11
2018-07-23T20:25:46.382Z,67.53
2018-07-23T20:30:40.957Z,67.76
2018-07-23T20:35:35.569Z,67.23
2018-07-23T20:40:30.230Z,67.10
2018-07-23T20:45:24.946Z,68.02
2018-07-23T20:50:19.552Z,68.48
2018-07-23T20:55:14.355Z,68.08
2018-07-23T21:00:09.122Z,68.62
2018-07-23T21:05:03.742Z,68.41
2018-07-23T21:09:58.025Z,68.59
2018-07-23T21:14:52.644Z,68.64
2018-07-23T21:19:47.343Z,69.59
2018-07-23T21:24:41.862Z,68.95
2018-07-23T21:29:36.388Z,69.85
2018-07-23T21:34:30.987Z,69.99
2018-07-23T21:39:25.548Z,68.95
2018-07-23T21:44:20.142Z,69.76
2018-07-23T21:49:14.712Z,70.64
2018-07-23T21:54:09.372Z,70.30
2018-07-23T21:59:03.951Z,70.68
2018-07-23T22:03:58.508Z,70.55
2018-07-23T22:08:55.244Z,70.96
2018-07-23T22:13:49.821Z,71.16
2018-07-23T22:18:44.391Z,70.48
2018-07-23T22:23:38.947Z,70.73
2018-07-23T22:28:33.641Z,71.37
2018-07-23T22:33:28.472Z,72.42
2018-07-23T22:38:23.120Z,71.12
2018-07-23T22:43:18.021Z,71.31
2018-07-23T22:48:12.654Z,70.84
2018-07-23T22:53:07.277Z,70.93
2018-07-23T22:58:01.851Z,72.06
2018-07-23T23:02:56.449Z,72.40
2018-07-23T23:07:51.060Z,73.98
2018-07-23T23:12:45.652Z,74.05
2018-07-23T23:17:40.448Z,75.43
2018-07-23T23:22:35.016Z,75.30
2018-07-23T23:27:29.614Z,75.01
2018-07-23T23:32:24.585Z,74.73
2018-07-23T23:37:19.183Z,75.48
2018-07-23T23:42:13.937Z,74.88
2018-07-23T23:47:08.528Z,74.73
2018-07-23T23:52:03.102Z,74.76
2018-07-23T23:56:57.635Z,75.29
